createdAt,value
2019-03-23T00:02:11.435Z,242.27
2019-03-23T00:04:42.174Z,248.37
2019-03-23T00:07:12.857Z,235.97
2019-03-23T00:09:43.809Z,246.60
2019-03-23T00:12:14.706Z,232.33
2019-03-23T00:14:45.539Z,226.73
2019-03-23T00:17:16.213Z,209.17
2019-03-23T00:19:46.981Z,203.20
2019-03-23T00:22:17.691Z,206.20
2019-03-23T00:24:48.376Z,190.70
2019-03-23T00:27:19.135Z,194.07
2019-03-23T00:29:49.723Z,192.17
2019-03-23T00:32:20.322Z,194.43
2019-03-23T00:34:51.062Z,182.87
2019-03-23T00:37:21.651Z,184.43
2019-03-23T00:39:52.271Z,181.90
2019-03-23T00:42:22.934Z,183.37
2019-03-23T00:45:07.578Z,160.37
2019-03-23T00:47:38.178Z,160.20
2019-03-23T00:50:09.316Z,164.80
2019-03-23T00:52:39.997Z,160.37
2019-03-23T00:55:10.622Z,166.70
2019-03-23T00:57:41.215Z,148.53
2019-03-23T01:00:11.876Z,146.57
2019-03-23T01:02:42.610Z,160.57
2019-03-23T01:05:13.304Z,151.00
2019-03-23T01:07:43.958Z,152.10
2019-03-23T01:10:15.116Z,144.80
2019-03-23T01:12:45.729Z,147.10
2019-03-23T01:15:16.304Z,158.20
2019-03-23T01:17:46.950Z,140.73
2019-03-23T01:20:17.581Z,133.33
2019-03-23T01:22:48.192Z,136.90
2019-03-23T01:25:20.853Z,126.80
2019-03-23T01:27:51.243Z,123.70
2019-03-23T01:30:21.944Z,126.53
2019-03-23T01:32:52.610Z,124.40
2019-03-23T01:35:23.327Z,124.87
2019-03-23T01:37:54.007Z,124.77
2019-03-23T01:40:24.709Z,126.23
2019-03-23T01:42:55.362Z,123.03
2019-03-23T01:45:25.976Z,115.83
2019-03-23T01:47:56.589Z,111.23
2019-03-23T01:50:27.327Z,114.37
2019-03-23T01:52:57.944Z,112.33
2019-03-23T01:55:28.654Z,111.37
2019-03-23T01:57:59.315Z,107.83
2019-03-23T02:00:30.105Z,109.70
2019-03-23T02:03:00.670Z,105.23
2019-03-23T02:05:31.355Z,100.83
2019-03-23T02:08:02.013Z,114.50
2019-03-23T02:10:32.603Z,106.53
2019-03-23T02:13:03.170Z,110.70
2019-03-23T02:15:33.800Z,113.93
2019-03-23T02:18:04.453Z,122.30
2019-03-23T02:20:35.067Z,116.50
2019-03-23T02:23:05.679Z,119.83
2019-03-23T02:25:36.279Z,130.03
2019-03-23T02:28:06.905Z,122.13
2019-03-23T02:30:37.659Z,123.60
2019-03-23T02:33:08.468Z,117.83
2019-03-23T02:35:39.080Z,120.90
2019-03-23T02:38:10.079Z,115.33
2019-03-23T02:40:40.671Z,124.23
2019-03-23T02:43:11.362Z,128.80
2019-03-23T02:45:42.058Z,118.03
2019-03-23T02:48:12.637Z,126.53
2019-03-23T02:50:43.356Z,134.53
2019-03-23T02:53:14.025Z,128.47
2019-03-23T02:55:44.732Z,123.00
2019-03-23T02:58:15.431Z,131.37
2019-03-23T03:00:46.152Z,127.67
2019-03-23T03:03:16.842Z,117.83
2019-03-23T03:05:47.565Z,127.60
2019-03-23T03:08:18.145Z,115.67
2019-03-23T03:10:48.784Z,114.73
2019-03-23T03:13:19.473Z,118.27
2019-03-23T03:15:50.065Z,122.30
2019-03-23T03:18:21.104Z,120.63
2019-03-23T03:20:52.222Z,120.47
2019-03-23T03:23:22.906Z,115.43
2019-03-23T03:25:53.612Z,104.63
2019-03-23T03:28:24.305Z,109.03
2019-03-23T03:30:55.076Z,109.77
2019-03-23T03:33:25.873Z,108.70
2019-03-23T03:35:56.499Z,100.33
2019-03-23T03:38:27.098Z,116.87
2019-03-23T03:40:57.708Z,100.33
2019-03-23T03:43:28.390Z,109.97
2019-03-23T03:45:59.307Z,112.97
2019-03-23T03:48:30.046Z,103.53
2019-03-23T03:51:00.723Z,104.00
2019-03-23T03:53:31.357Z,100.60
2019-03-23T03:56:02.088Z,100.03
2019-03-23T03:58:32.736Z,93.50
2019-03-23T04:01:03.358Z,94.73
2019-03-23T04:03:33.953Z,93.30
2019-03-23T04:06:04.615Z,101.40
2019-03-23T04:08:35.413Z,107.33
2019-03-23T04:11:06.122Z,100.13
2019-03-23T04:13:36.706Z,107.70
2019-03-23T04:16:07.447Z,99.23
2019-03-23T04:18:38.008Z,101.97
2019-03-23T04:21:08.709Z,105.70
2019-03-23T04:23:39.460Z,103.87
2019-03-23T04:26:10.109Z,100.87
2019-03-23T04:28:40.804Z,96.23
2019-03-23T04:31:11.663Z,110.50
2019-03-23T04:33:42.351Z,102.80
2019-03-23T04:36:13.023Z,110.77
2019-03-23T04:38:43.613Z,101.97
2019-03-23T04:41:14.398Z,102.53
2019-03-23T04:43:45.207Z,102.47
2019-03-23T04:46:15.981Z,102.93
2019-03-23T04:48:46.582Z,103.33
2019-03-23T04:51:17.368Z,93.30
2019-03-23T04:53:48.077Z,103.17
2019-03-23T04:56:18.667Z,101.33
2019-03-23T04:58:49.328Z,105.63
2019-03-23T05:01:19.942Z,99.47
2019-03-23T05:03:50.560Z,103.03
2019-03-23T05:06:21.167Z,104.27
2019-03-23T05:08:51.763Z,98.20
2019-03-23T05:11:22.371Z,101.20
2019-03-23T05:13:52.916Z,99.07
2019-03-23T05:16:23.660Z,99.07
2019-03-23T05:18:54.353Z,96.47
2019-03-23T05:21:24.986Z,93.90
2019-03-23T05:23:55.625Z,95.20
2019-03-23T05:26:26.272Z,96.67
2019-03-23T05:28:56.844Z,93.37
2019-03-23T05:31:27.472Z,89.90
2019-03-23T05:33:58.116Z,99.30
2019-03-23T05:36:28.763Z,104.97
2019-03-23T05:38:59.750Z,90.67
2019-03-23T05:41:30.969Z,94.97
2019-03-23T05:44:01.606Z,95.67
2019-03-23T05:46:32.261Z,87.43
2019-03-23T05:49:02.844Z,90.70
2019-03-23T05:51:33.505Z,89.90
2019-03-23T05:54:04.150Z,88.73
2019-03-23T05:56:36.815Z,94.03
2019-03-23T05:59:07.517Z,96.13
2019-03-23T06:01:38.133Z,92.03
2019-03-23T06:04:08.697Z,91.83
2019-03-23T06:06:39.299Z,89.13
2019-03-23T06:09:09.915Z,100.07
2019-03-23T06:11:40.525Z,98.37
2019-03-23T06:14:11.156Z,100.47
2019-03-23T06:16:41.842Z,90.97
2019-03-23T06:19:12.458Z,88.07
2019-03-23T06:21:43.145Z,86.23
2019-03-23T06:24:13.720Z,84.90
2019-03-23T06:26:44.349Z,93.03
2019-03-23T06:29:14.928Z,84.27
2019-03-23T06:31:45.534Z,86.53
2019-03-23T06:34:16.089Z,95.03
2019-03-23T06:36:50.060Z,92.53
2019-03-23T06:39:20.640Z,92.27
2019-03-23T06:41:51.244Z,83.83
2019-03-23T06:44:21.865Z,93.67
2019-03-23T06:46:52.455Z,87.97
2019-03-23T06:49:23.176Z,95.03
2019-03-23T06:51:53.845Z,91.27
2019-03-23T06:54:27.700Z,86.43
2019-03-23T06:56:59.740Z,86.90
2019-03-23T06:59:30.303Z,83.90
2019-03-23T07:02:00.938Z,88.90
2019-03-23T07:04:31.559Z,93.60
2019-03-23T07:07:02.299Z,92.07
2019-03-23T07:09:32.880Z,87.77
2019-03-23T07:12:03.657Z,89.10
2019-03-23T07:14:34.232Z,86.37
2019-03-23T07:17:04.837Z,84.63
2019-03-23T07:19:35.434Z,90.07
2019-03-23T07:22:06.208Z,86.63
2019-03-23T07:24:36.825Z,82.13
2019-03-23T07:27:07.538Z,80.50
2019-03-23T07:29:40.527Z,84.37
2019-03-23T07:32:11.193Z,76.53
2019-03-23T07:34:41.792Z,77.07
2019-03-23T07:37:12.400Z,78.87
2019-03-23T07:39:43.069Z,86.77
2019-03-23T07:42:13.726Z,84.77
2019-03-23T07:44:44.291Z,76.43
2019-03-23T07:47:15.069Z,81.60
2019-03-23T07:49:45.667Z,81.90
2019-03-23T07:52:19.536Z,80.87
2019-03-23T07:54:50.137Z,74.40
2019-03-23T07:57:20.827Z,77.60
2019-03-23T07:59:51.418Z,72.87
2019-03-23T08:02:22.034Z,71.43
2019-03-23T08:04:52.698Z,76.07
2019-03-23T08:07:23.398Z,72.00
2019-03-23T08:09:54.047Z,74.83
2019-03-23T08:12:24.693Z,72.77
2019-03-23T08:14:55.361Z,70.60
2019-03-23T08:17:26.090Z,71.47
2019-03-23T08:19:56.825Z,72.73
2019-03-23T08:22:27.709Z,71.87
2019-03-23T08:24:58.410Z,76.87
2019-03-23T08:27:29.026Z,66.63
2019-03-23T08:29:59.573Z,67.00
2019-03-23T08:32:30.261Z,68.63
2019-03-23T08:35:00.902Z,65.67
2019-03-23T08:37:31.562Z,66.20
2019-03-23T08:40:02.154Z,66.87
2019-03-23T08:42:34.970Z,68.93
2019-03-23T08:45:05.235Z,67.47
2019-03-23T08:47:35.851Z,73.37
2019-03-23T08:50:06.750Z,67.13
2019-03-23T08:52:37.355Z,66.87
2019-03-23T08:55:08.253Z,69.97
2019-03-23T08:57:41.319Z,70.30
2019-03-23T09:00:11.532Z,78.13
2019-03-23T09:02:42.237Z,73.77
2019-03-23T09:05:12.809Z,73.27
2019-03-23T09:07:43.383Z,70.57
2019-03-23T09:10:14.160Z,66.73
2019-03-23T09:12:44.855Z,69.97
2019-03-23T09:15:15.543Z,75.63
2019-03-23T09:17:46.360Z,73.53
2019-03-23T09:20:17.056Z,79.87
2019-03-23T09:22:47.750Z,80.90
2019-03-23T09:25:18.441Z,84.90
2019-03-23T09:27:49.165Z,83.87
2019-03-23T09:30:19.752Z,79.23
2019-03-23T09:32:50.398Z,77.57
2019-03-23T09:35:21.099Z,78.13
2019-03-23T09:37:51.932Z,75.03
2019-03-23T09:40:22.584Z,75.70
2019-03-23T09:42:53.195Z,76.53
2019-03-23T09:45:23.855Z,74.17
2019-03-23T09:47:54.423Z,77.63
2019-03-23T09:50:25.017Z,79.00
2019-03-23T09:52:55.775Z,84.00
2019-03-23T09:55:28.548Z,86.00
2019-03-23T09:57:58.696Z,73.00
2019-03-23T10:00:29.341Z,82.23
2019-03-23T10:02:59.946Z,83.13
2019-03-23T10:05:30.590Z,85.50
2019-03-23T10:08:01.341Z,86.03
2019-03-23T10:10:31.951Z,76.67
2019-03-23T10:13:02.693Z,85.83
2019-03-23T10:15:33.378Z,82.17
2019-03-23T10:18:07.475Z,86.40
2019-03-23T10:20:38.123Z,75.43
2019-03-23T10:23:08.742Z,83.93
2019-03-23T10:25:39.425Z,76.00
2019-03-23T10:28:10.067Z,90.77
2019-03-23T10:30:40.640Z,76.73
2019-03-23T10:33:11.309Z,80.87
2019-03-23T10:35:41.891Z,84.70
2019-03-23T10:38:12.517Z,81.57
2019-03-23T10:40:43.195Z,77.63
2019-03-23T10:43:13.937Z,75.23
2019-03-23T10:45:44.650Z,78.53
2019-03-23T10:48:15.390Z,74.30
2019-03-23T10:50:48.019Z,80.67
2019-03-23T10:53:23.068Z,81.90
2019-03-23T10:55:50.954Z,72.17
2019-03-23T10:58:21.594Z,76.27
2019-03-23T11:00:52.186Z,75.97
2019-03-23T11:03:22.799Z,81.63
2019-03-23T11:05:53.451Z,71.83
2019-03-23T11:08:27.805Z,79.27
2019-03-23T11:10:58.387Z,72.90
2019-03-23T11:13:29.046Z,79.60
2019-03-23T11:15:59.987Z,72.97
2019-03-23T11:18:30.689Z,74.37
2019-03-23T11:21:01.270Z,78.03
2019-03-23T11:23:31.857Z,76.63
2019-03-23T11:26:02.418Z,77.10
2019-03-23T11:28:33.198Z,69.67
2019-03-23T11:31:04.361Z,71.53
2019-03-23T11:33:35.006Z,75.53
2019-03-23T11:36:05.628Z,71.50
2019-03-23T11:38:36.612Z,72.47
2019-03-23T11:41:07.191Z,76.10
2019-03-23T11:43:39.939Z,75.70
2019-03-23T11:46:10.548Z,71.07
2019-03-23T11:48:41.165Z,74.37
2019-03-23T11:51:11.733Z,76.70
2019-03-23T11:53:42.322Z,70.23
2019-03-23T11:56:12.999Z,75.67
2019-03-23T11:58:43.644Z,73.90
2019-03-23T12:01:14.371Z,65.10
2019-03-23T12:03:45.045Z,67.07
2019-03-23T12:06:15.632Z,76.77
2019-03-23T12:08:47.975Z,68.27
2019-03-23T12:11:18.639Z,68.17
2019-03-23T12:13:49.334Z,71.53
2019-03-23T12:16:19.938Z,69.60
2019-03-23T12:18:51.653Z,65.67
2019-03-23T12:21:22.227Z,74.53
2019-03-23T12:23:52.814Z,66.60
2019-03-23T12:26:23.527Z,62.63
2019-03-23T12:28:54.074Z,64.63
2019-03-23T12:31:24.696Z,65.10
2019-03-23T12:33:55.351Z,64.40
2019-03-23T12:36:26.002Z,70.80
2019-03-23T12:38:56.653Z,62.90
2019-03-23T12:41:27.267Z,64.87
2019-03-23T12:43:57.915Z,66.80
2019-03-23T12:46:28.560Z,67.90
2019-03-23T12:48:59.247Z,69.83
2019-03-23T12:51:29.807Z,66.57
2019-03-23T12:54:00.400Z,69.30
2019-03-23T12:56:30.987Z,67.30
2019-03-23T12:59:01.627Z,63.40
2019-03-23T13:01:32.354Z,67.93
2019-03-23T13:04:03.044Z,65.10
2019-03-23T13:06:33.701Z,66.83
2019-03-23T13:09:05.039Z,62.50
2019-03-23T13:11:36.167Z,66.80
2019-03-23T13:14:07.439Z,68.53
2019-03-23T13:16:38.030Z,64.93
2019-03-23T13:19:08.705Z,63.87
2019-03-23T13:21:39.297Z,60.03
2019-03-23T13:24:09.950Z,62.97
2019-03-23T13:26:40.531Z,66.37
2019-03-23T13:29:11.283Z,58.83
2019-03-23T13:31:41.978Z,60.97
2019-03-23T13:34:12.681Z,60.50
2019-03-23T13:36:43.374Z,56.83
2019-03-23T13:39:14.179Z,56.43
2019-03-23T13:41:52.102Z,57.00
2019-03-23T13:44:22.719Z,58.53
2019-03-23T13:46:53.457Z,56.97
2019-03-23T13:49:24.254Z,54.23
2019-03-23T13:51:54.836Z,58.37
2019-03-23T13:54:25.534Z,61.27
2019-03-23T13:56:56.348Z,58.17
2019-03-23T13:59:26.994Z,60.37
2019-03-23T14:01:57.606Z,59.80
2019-03-23T14:04:28.268Z,57.03
2019-03-23T14:06:59.015Z,65.23
2019-03-23T14:09:29.631Z,61.63
2019-03-23T14:12:00.219Z,66.67
2019-03-23T14:14:30.854Z,60.23
2019-03-23T14:17:01.508Z,66.60
2019-03-23T14:19:32.207Z,60.70
2019-03-23T14:22:02.766Z,60.63
2019-03-23T14:24:33.348Z,62.10
2019-03-23T14:27:03.946Z,62.93
2019-03-23T14:29:34.585Z,55.83
2019-03-23T14:32:05.236Z,57.70
2019-03-23T14:34:35.869Z,57.93
2019-03-23T14:37:06.535Z,58.33
2019-03-23T14:39:37.201Z,65.63
2019-03-23T14:42:07.799Z,59.70
2019-03-23T14:44:38.400Z,56.57
2019-03-23T14:47:08.995Z,53.07
2019-03-23T14:49:39.618Z,54.00
2019-03-23T14:52:10.263Z,56.77
2019-03-23T14:54:40.911Z,55.47
2019-03-23T14:57:11.446Z,55.50
2019-03-23T14:59:42.066Z,53.23
2019-03-23T15:02:12.744Z,53.40
2019-03-23T15:04:43.329Z,54.27
2019-03-23T15:07:14.005Z,54.93
2019-03-23T15:09:44.629Z,52.97
2019-03-23T15:12:15.503Z,59.33
2019-03-23T15:14:46.246Z,57.23
2019-03-23T15:17:16.902Z,61.77
2019-03-23T15:19:47.542Z,57.17
2019-03-23T15:22:18.178Z,59.57
2019-03-23T15:24:48.768Z,55.43
2019-03-23T15:27:19.468Z,56.27
2019-03-23T15:29:50.072Z,57.43
2019-03-23T15:32:20.722Z,54.43
2019-03-23T15:34:51.468Z,62.87
2019-03-23T15:37:22.220Z,59.17
2019-03-23T15:39:52.850Z,61.07
2019-03-23T15:42:24.924Z,58.53
2019-03-23T15:44:55.816Z,63.23
2019-03-23T15:47:26.420Z,61.50
2019-03-23T15:49:56.997Z,54.30
2019-03-23T15:52:27.635Z,59.27
2019-03-23T15:54:58.218Z,60.57
2019-03-23T15:57:28.780Z,61.50
2019-03-23T15:59:59.362Z,63.17
2019-03-23T16:02:30.004Z,63.77
2019-03-23T16:05:00.651Z,62.20
2019-03-23T16:07:31.349Z,60.70
2019-03-23T16:10:02.018Z,60.23
2019-03-23T16:12:35.307Z,64.60
2019-03-23T16:15:06.522Z,58.03
2019-03-23T16:17:37.128Z,63.83
2019-03-23T16:20:09.555Z,63.73
2019-03-23T16:22:40.159Z,61.70
2019-03-23T16:25:11.067Z,61.43
2019-03-23T16:27:41.677Z,62.83
2019-03-23T16:30:12.854Z,63.80
2019-03-23T16:32:43.433Z,57.73
2019-03-23T16:35:14.055Z,62.30
2019-03-23T16:37:44.640Z,65.33
2019-03-23T16:40:23.086Z,64.00
2019-03-23T16:42:53.701Z,58.67
2019-03-23T16:45:24.542Z,60.00
2019-03-23T16:47:55.108Z,57.53
2019-03-23T16:50:25.810Z,60.27
2019-03-23T16:52:56.548Z,52.00
2019-03-23T16:55:27.212Z,55.23
2019-03-23T16:57:58.217Z,56.93
2019-03-23T17:00:36.252Z,53.93
2019-03-23T17:03:07.908Z,51.10
2019-03-23T17:05:38.495Z,51.83
2019-03-23T17:08:09.066Z,49.33
2019-03-23T17:10:39.654Z,49.97
2019-03-23T17:13:10.295Z,48.97
2019-03-23T17:15:40.946Z,49.40
2019-03-23T17:18:11.685Z,50.90
2019-03-23T17:20:42.409Z,45.30
2019-03-23T17:23:13.133Z,46.30
2019-03-23T17:25:43.816Z,41.67
2019-03-23T17:28:14.399Z,42.57
2019-03-23T17:30:45.001Z,44.10
2019-03-23T17:33:15.621Z,41.57
2019-03-23T17:35:46.247Z,40.93
2019-03-23T17:38:16.856Z,43.43
2019-03-23T17:40:48.432Z,41.43
2019-03-23T17:43:19.084Z,36.60
2019-03-23T17:45:49.734Z,38.20
2019-03-23T17:48:20.444Z,38.77
2019-03-23T17:50:51.100Z,37.67
2019-03-23T17:53:21.837Z,37.60
2019-03-23T17:55:52.551Z,40.53
2019-03-23T17:58:23.342Z,39.80
2019-03-23T18:00:54.104Z,36.67
2019-03-23T18:03:24.657Z,39.93
2019-03-23T18:05:55.370Z,40.20
2019-03-23T18:08:26.016Z,38.40
2019-03-23T18:10:56.707Z,40.47
2019-03-23T18:13:27.312Z,42.00
2019-03-23T18:15:57.991Z,39.97
2019-03-23T18:18:28.656Z,42.17
2019-03-23T18:20:59.322Z,42.13
2019-03-23T18:23:31.594Z,38.37
2019-03-23T18:26:02.359Z,43.30
2019-03-23T18:28:32.988Z,41.83
2019-03-23T18:31:03.646Z,39.53
2019-03-23T18:33:34.277Z,42.30
2019-03-23T18:36:04.985Z,40.67
2019-03-23T18:38:35.596Z,39.90
2019-03-23T18:41:06.500Z,38.57
2019-03-23T18:43:37.177Z,38.60
2019-03-23T18:46:07.869Z,33.23
2019-03-23T18:48:38.485Z,35.37
2019-03-23T18:51:09.158Z,30.67
2019-03-23T18:53:39.898Z,33.00
2019-03-23T18:56:10.692Z,29.80
2019-03-23T18:58:41.404Z,32.33
2019-03-23T19:01:12.137Z,32.37
2019-03-23T19:03:42.967Z,29.63
2019-03-23T19:06:13.575Z,30.10
2019-03-23T19:08:44.217Z,32.23
2019-03-23T19:11:15.116Z,29.40
2019-03-23T19:13:45.942Z,30.77
2019-03-23T19:16:16.568Z,27.43
2019-03-23T19:18:49.209Z,30.37
2019-03-23T19:21:19.476Z,31.67
2019-03-23T19:23:50.092Z,28.97
2019-03-23T19:26:20.691Z,29.43
2019-03-23T19:28:51.344Z,27.93
2019-03-23T19:31:22.106Z,31.47
2019-03-23T19:33:54.152Z,31.73
2019-03-23T19:36:24.887Z,31.43
2019-03-23T19:38:55.586Z,32.90
2019-03-23T19:41:26.211Z,32.50
2019-03-23T19:43:56.835Z,34.33
2019-03-23T19:46:27.501Z,36.07
2019-03-23T19:48:58.197Z,35.17
2019-03-23T19:51:28.868Z,34.33
2019-03-23T19:53:59.564Z,33.33
2019-03-23T19:56:30.211Z,33.17
2019-03-23T19:59:02.420Z,36.47
2019-03-23T20:01:33.030Z,35.10
2019-03-23T20:04:03.736Z,31.70
2019-03-23T20:06:34.361Z,34.87
2019-03-23T20:09:07.236Z,39.80
2019-03-23T20:11:37.816Z,35.13
2019-03-23T20:14:08.394Z,36.67
2019-03-23T20:16:39.048Z,36.83
2019-03-23T20:19:09.988Z,35.67
2019-03-23T20:21:40.625Z,36.57
2019-03-23T20:24:11.254Z,35.40
2019-03-23T20:26:41.827Z,33.77
2019-03-23T20:29:12.484Z,32.40
2019-03-23T20:31:45.386Z,32.60
2019-03-23T20:34:15.540Z,26.73
2019-03-23T20:36:46.354Z,27.80
2019-03-23T20:39:17.174Z,22.13
2019-03-23T20:41:47.780Z,18.50
2019-03-23T20:44:18.577Z,15.67
2019-03-23T20:46:49.420Z,16.47
2019-03-23T20:49:20.192Z,14.87
2019-03-23T20:51:51.272Z,15.20
2019-03-23T20:54:21.979Z,13.87
2019-03-23T20:56:52.609Z,11.63
2019-03-23T20:59:23.259Z,12.60
2019-03-23T21:01:53.919Z,11.47
2019-03-23T21:04:24.536Z,10.97
2019-03-23T21:06:55.140Z,11.93
2019-03-23T21:09:25.773Z,11.50
2019-03-23T21:11:56.712Z,9.77
2019-03-23T21:14:27.416Z,12.90
2019-03-23T21:16:58.409Z,13.57
2019-03-23T21:19:29.052Z,12.10
2019-03-23T21:21:59.736Z,9.53
2019-03-23T21:24:30.370Z,11.60
2019-03-23T21:27:00.993Z,13.93
2019-03-23T21:29:31.674Z,11.50
2019-03-23T21:32:02.399Z,9.80
2019-03-23T21:34:33.056Z,14.27
2019-03-23T21:37:03.697Z,10.40
2019-03-23T21:39:34.475Z,12.07
2019-03-23T21:42:05.111Z,12.70
2019-03-23T21:44:35.949Z,12.37
2019-03-23T21:47:06.560Z,12.90
2019-03-23T21:49:37.164Z,12.63
2019-03-23T21:52:07.866Z,13.53
2019-03-23T21:54:38.525Z,13.73
2019-03-23T21:57:09.235Z,13.67
2019-03-23T21:59:52.221Z,13.77
2019-03-23T22:02:22.975Z,15.97
2019-03-23T22:04:53.550Z,14.23
2019-03-23T22:07:24.248Z,16.07
2019-03-23T22:09:54.843Z,15.13
2019-03-23T22:12:25.454Z,13.00
2019-03-23T22:14:56.101Z,16.37
2019-03-23T22:17:26.733Z,15.17
2019-03-23T22:19:57.323Z,11.20
2019-03-23T22:22:28.187Z,13.27
2019-03-23T22:24:58.856Z,11.50
2019-03-23T22:27:29.460Z,14.13
2019-03-23T22:30:00.348Z,11.47
2019-03-23T22:32:31.342Z,16.60
2019-03-23T22:35:02.031Z,16.07
2019-03-23T22:37:33.131Z,11.70
2019-03-23T22:40:03.770Z,15.73
2019-03-23T22:42:34.477Z,12.03
2019-03-23T22:45:05.883Z,11.10
2019-03-23T22:47:36.504Z,12.77
2019-03-23T22:50:07.633Z,15.67
2019-03-23T22:52:38.266Z,14.70
2019-03-23T22:55:10.097Z,13.37
2019-03-23T22:57:40.719Z,15.37
2019-03-23T23:00:16.334Z,12.93
2019-03-23T23:02:46.912Z,13.10
2019-03-23T23:05:17.664Z,14.97
2019-03-23T23:07:48.473Z,13.43
2019-03-23T23:10:19.121Z,14.13
2019-03-23T23:12:49.761Z,12.50
2019-03-23T23:15:20.682Z,13.90
2019-03-23T23:17:51.383Z,16.73
2019-03-23T23:20:22.025Z,16.17
2019-03-23T23:22:52.685Z,14.07
2019-03-23T23:25:23.262Z,15.43
2019-03-23T23:27:55.808Z,13.40
2019-03-23T23:30:26.363Z,12.93
2019-03-23T23:32:56.965Z,13.60
2019-03-23T23:35:28.113Z,14.33
2019-03-23T23:37:58.758Z,14.37
2019-03-23T23:40:29.315Z,14.17
2019-03-23T23:42:59.918Z,13.90
2019-03-23T23:45:30.607Z,12.77
2019-03-23T23:48:01.275Z,11.87
2019-03-23T23:50:31.930Z,12.93
2019-03-23T23:53:02.563Z,12.13
2019-03-23T23:55:33.138Z,12.90
2019-03-23T23:58:03.730Z,18.63
